createdAt,value
2017-10-24T00:00:48.512Z,11.77
2017-10-24T00:01:49.082Z,11.69
2017-10-24T00:02:49.654Z,11.72
2017-10-24T00:03:50.229Z,11.80
2017-10-24T00:04:50.796Z,11.88
2017-10-24T00:05:51.368Z,11.83
2017-10-24T00:06:51.938Z,11.73
2017-10-24T00:07:52.510Z,11.90
2017-10-24T00:08:53.081Z,11.78
2017-10-24T00:09:53.654Z,11.86
2017-10-24T00:10:54.226Z,11.81
2017-10-24T00:11:54.797Z,11.80
2017-10-24T00:12:55.372Z,11.84
2017-10-24T00:13:55.941Z,11.78
2017-10-24T00:14:56.512Z,11.81
2017-10-24T00:15:57.082Z,11.73
2017-10-24T00:16:57.653Z,11.73
2017-10-24T00:17:58.235Z,11.77
2017-10-24T00:18:58.808Z,11.70
2017-10-24T00:19:59.378Z,11.75
2017-10-24T00:20:59.952Z,11.75
2017-10-24T00:22:00.535Z,11.72
2017-10-24T00:23:01.104Z,11.70
2017-10-24T00:24:01.678Z,11.72
2017-10-24T00:25:02.249Z,11.70
2017-10-24T00:26:02.825Z,11.70
2017-10-24T00:27:03.393Z,11.69
2017-10-24T00:28:03.963Z,11.66
2017-10-24T00:29:04.541Z,11.66
2017-10-24T00:30:05.106Z,11.70
2017-10-24T00:31:05.676Z,11.69
2017-10-24T00:32:06.247Z,11.70
2017-10-24T00:33:06.828Z,11.78
2017-10-24T00:34:07.391Z,11.66
2017-10-24T00:35:07.970Z,11.73
2017-10-24T00:36:08.536Z,11.73
2017-10-24T00:37:09.110Z,11.72
2017-10-24T00:38:09.680Z,11.73
2017-10-24T00:39:10.252Z,11.69
2017-10-24T00:40:10.823Z,11.80
2017-10-24T00:41:11.393Z,11.70
2017-10-24T00:42:11.965Z,11.72
2017-10-24T00:43:12.537Z,11.70
2017-10-24T00:44:13.107Z,11.70
2017-10-24T00:45:13.678Z,11.80
2017-10-24T00:46:14.247Z,11.72
2017-10-24T00:47:14.819Z,11.72
2017-10-24T00:48:15.391Z,11.69
2017-10-24T00:49:15.962Z,11.72
2017-10-24T00:50:16.548Z,11.77
2017-10-24T00:51:17.115Z,11.75
2017-10-24T00:52:17.685Z,11.77
2017-10-24T00:53:18.256Z,11.69
2017-10-24T00:54:18.827Z,11.73
2017-10-24T00:55:19.401Z,11.72
2017-10-24T00:56:19.971Z,11.75
2017-10-24T00:57:20.545Z,11.70
2017-10-24T00:58:21.128Z,11.80
2017-10-24T00:59:21.699Z,11.77
2017-10-24T01:00:22.270Z,11.72
2017-10-24T01:01:22.859Z,11.72
2017-10-24T01:02:23.414Z,11.69
2017-10-24T01:03:23.989Z,11.83
2017-10-24T01:04:24.560Z,11.77
2017-10-24T01:05:25.131Z,11.77
2017-10-24T01:06:25.714Z,11.75
2017-10-24T01:07:26.278Z,11.77
2017-10-24T01:08:26.858Z,11.73
2017-10-24T01:09:27.431Z,11.80
2017-10-24T01:10:28.010Z,11.70
2017-10-24T01:11:28.581Z,11.73
2017-10-24T01:12:29.152Z,11.84
2017-10-24T01:13:29.724Z,11.81
2017-10-24T01:14:30.298Z,11.77
2017-10-24T01:15:30.871Z,11.68
2017-10-24T01:16:31.452Z,11.73
2017-10-24T01:17:32.023Z,11.80
2017-10-24T01:18:32.594Z,11.81
2017-10-24T01:19:33.169Z,11.84
2017-10-24T01:20:33.742Z,11.83
2017-10-24T01:21:34.314Z,11.88
2017-10-24T01:22:34.886Z,11.88
2017-10-24T01:23:35.458Z,11.90
2017-10-24T01:24:36.030Z,11.84
2017-10-24T01:25:36.600Z,11.84
2017-10-24T01:26:37.172Z,11.83
2017-10-24T01:27:37.746Z,11.84
2017-10-24T01:28:38.326Z,11.87
2017-10-24T01:29:38.896Z,11.86
2017-10-24T01:30:39.478Z,11.97
2017-10-24T01:31:40.049Z,11.84
2017-10-24T01:32:40.621Z,11.90
2017-10-24T01:33:41.194Z,11.83
2017-10-24T01:34:41.767Z,11.88
2017-10-24T01:35:42.345Z,11.87
2017-10-24T01:36:42.911Z,11.87
2017-10-24T01:37:43.484Z,11.94
2017-10-24T01:38:44.055Z,11.87
2017-10-24T01:39:44.626Z,11.95
2017-10-24T01:40:45.198Z,11.88
2017-10-24T01:41:45.769Z,11.94
2017-10-24T01:42:46.340Z,11.94
2017-10-24T01:43:46.912Z,11.83
2017-10-24T01:44:47.496Z,11.97
2017-10-24T01:45:48.067Z,11.90
2017-10-24T01:46:48.637Z,11.88
2017-10-24T01:47:49.210Z,11.94
2017-10-24T01:48:49.779Z,11.94
2017-10-24T01:49:50.352Z,11.94
2017-10-24T01:50:50.923Z,11.90
2017-10-24T01:51:51.497Z,11.87
2017-10-24T01:52:52.079Z,11.97
2017-10-24T01:53:52.650Z,11.94
2017-10-24T01:54:53.221Z,11.88
2017-10-24T01:55:53.792Z,11.88
2017-10-24T01:56:54.374Z,11.97
2017-10-24T01:57:54.946Z,11.90
2017-10-24T01:58:55.517Z,11.94
2017-10-24T01:59:56.089Z,11.88
2017-10-24T02:00:56.660Z,11.87
2017-10-24T02:01:57.232Z,11.97
2017-10-24T02:02:57.803Z,11.91
2017-10-24T02:03:58.375Z,11.90
2017-10-24T02:04:58.957Z,11.90
2017-10-24T02:05:59.529Z,11.95
2017-10-24T02:07:00.101Z,11.90
2017-10-24T02:08:00.684Z,11.95
2017-10-24T02:09:01.257Z,11.94
2017-10-24T02:10:01.829Z,11.99
2017-10-24T02:11:02.401Z,12.06
2017-10-24T02:12:02.972Z,11.97
2017-10-24T02:13:03.544Z,11.95
2017-10-24T02:14:04.115Z,11.91
2017-10-24T02:15:04.687Z,11.91
2017-10-24T02:16:05.258Z,11.91
2017-10-24T02:17:05.830Z,11.91
2017-10-24T02:18:06.400Z,11.94
2017-10-24T02:19:06.973Z,11.97
2017-10-24T02:20:07.547Z,11.97
2017-10-24T02:21:08.121Z,11.95
2017-10-24T02:22:08.695Z,12.02
2017-10-24T02:23:09.264Z,12.02
2017-10-24T02:24:09.836Z,11.91
2017-10-24T02:25:10.408Z,12.04
2017-10-24T02:26:10.979Z,12.03
2017-10-24T02:27:11.550Z,12.06
2017-10-24T02:28:12.123Z,12.10
2017-10-24T02:29:12.705Z,12.03
2017-10-24T02:30:13.276Z,12.03
2017-10-24T02:31:13.847Z,12.04
2017-10-24T02:32:14.436Z,12.04
2017-10-24T02:33:14.993Z,12.12
2017-10-24T02:34:15.559Z,12.06
2017-10-24T02:35:16.131Z,12.03
2017-10-24T02:36:16.702Z,12.10
2017-10-24T02:37:17.283Z,12.06
2017-10-24T02:38:17.844Z,12.04
2017-10-24T02:39:18.417Z,12.04
2017-10-24T02:40:18.991Z,12.15
2017-10-24T02:41:19.563Z,12.13
2017-10-24T02:42:20.137Z,12.04
2017-10-24T02:43:20.707Z,12.12
2017-10-24T02:44:21.279Z,12.12
2017-10-24T02:45:21.850Z,12.03
2017-10-24T02:46:22.430Z,12.10
2017-10-24T02:47:22.995Z,12.09
2017-10-24T02:48:23.567Z,12.04
2017-10-24T02:49:24.136Z,12.20
2017-10-24T02:50:24.708Z,12.04
2017-10-24T02:51:25.282Z,12.03
2017-10-24T02:52:25.854Z,12.06
2017-10-24T02:53:26.435Z,12.09
2017-10-24T02:54:26.998Z,12.12
2017-10-24T02:55:27.571Z,12.17
2017-10-24T02:56:28.153Z,12.17
2017-10-24T02:57:28.726Z,12.12
2017-10-24T02:58:29.299Z,12.17
2017-10-24T02:59:29.872Z,12.13
2017-10-24T03:00:30.444Z,12.18
2017-10-24T03:01:31.015Z,12.03
2017-10-24T03:02:31.585Z,12.09
2017-10-24T03:03:32.158Z,12.15
2017-10-24T03:04:32.729Z,12.15
2017-10-24T03:05:33.300Z,12.15
2017-10-24T03:06:33.872Z,12.13
2017-10-24T03:07:34.442Z,12.12
2017-10-24T03:08:35.015Z,12.12
2017-10-24T03:09:35.597Z,12.10
2017-10-24T03:10:36.168Z,12.13
2017-10-24T03:11:36.740Z,12.10
2017-10-24T03:12:37.311Z,12.21
2017-10-24T03:13:37.882Z,12.10
2017-10-24T03:14:38.455Z,12.09
2017-10-24T03:15:39.026Z,12.10
2017-10-24T03:16:39.600Z,12.18
2017-10-24T03:17:40.183Z,12.27
2017-10-24T03:18:40.755Z,12.18
2017-10-24T03:19:41.326Z,12.25
2017-10-24T03:20:41.897Z,12.25
2017-10-24T03:21:42.469Z,12.22
2017-10-24T03:22:43.041Z,12.22
2017-10-24T03:23:43.614Z,12.24
2017-10-24T03:24:44.186Z,12.22
2017-10-24T03:25:44.762Z,12.25
2017-10-24T03:26:45.331Z,12.24
2017-10-24T03:27:45.903Z,12.24
2017-10-24T03:28:46.475Z,12.20
2017-10-24T03:29:47.046Z,12.24
2017-10-24T03:30:47.619Z,12.17
2017-10-24T03:31:48.201Z,12.15
2017-10-24T03:32:48.774Z,12.24
2017-10-24T03:33:49.346Z,12.25
2017-10-24T03:34:49.918Z,12.21
2017-10-24T03:35:50.490Z,12.29
2017-10-24T03:36:51.060Z,12.27
2017-10-24T03:37:51.635Z,12.22
2017-10-24T03:38:52.204Z,12.24
2017-10-24T03:39:52.776Z,12.22
2017-10-24T03:40:53.348Z,12.24
2017-10-24T03:41:53.923Z,12.28
2017-10-24T03:42:54.495Z,12.28
2017-10-24T03:43:55.068Z,12.27
2017-10-24T03:44:55.640Z,12.25
2017-10-24T03:45:56.212Z,12.27
2017-10-24T03:46:56.783Z,12.24
2017-10-24T03:47:57.355Z,12.20
2017-10-24T03:48:57.927Z,12.25
2017-10-24T03:49:58.497Z,12.27
2017-10-24T03:50:59.069Z,12.32
2017-10-24T03:51:59.641Z,12.28
2017-10-24T03:53:00.214Z,12.28
2017-10-24T03:54:00.788Z,12.21
2017-10-24T03:55:01.362Z,12.31
2017-10-24T03:56:01.934Z,12.29
2017-10-24T03:57:02.506Z,12.25
2017-10-24T03:58:03.079Z,12.24
2017-10-24T03:59:03.650Z,12.24
2017-10-24T04:00:04.223Z,12.22
2017-10-24T04:01:04.793Z,12.24
2017-10-24T04:02:05.365Z,12.29
2017-10-24T04:03:05.988Z,12.28
2017-10-24T04:04:06.561Z,12.28
2017-10-24T04:05:07.133Z,12.25
2017-10-24T04:06:07.704Z,12.24
2017-10-24T04:07:08.287Z,12.35
2017-10-24T04:08:08.861Z,12.22
2017-10-24T04:09:09.433Z,12.28
2017-10-24T04:10:10.022Z,12.24
2017-10-24T04:11:10.576Z,12.35
2017-10-24T04:12:11.160Z,12.28
2017-10-24T04:13:11.731Z,12.28
2017-10-24T04:14:12.306Z,12.32
2017-10-24T04:15:12.878Z,12.28
2017-10-24T04:16:13.449Z,12.35
2017-10-24T04:17:14.021Z,12.25
2017-10-24T04:18:14.592Z,12.28
2017-10-24T04:19:15.164Z,12.24
2017-10-24T04:20:15.734Z,12.22
2017-10-24T04:21:16.306Z,12.37
2017-10-24T04:22:16.878Z,12.29
2017-10-24T04:23:17.461Z,12.35
2017-10-24T04:24:18.034Z,12.35
2017-10-24T04:25:18.605Z,12.32
2017-10-24T04:26:19.177Z,12.31
2017-10-24T04:27:19.749Z,12.32
2017-10-24T04:28:20.320Z,12.36
2017-10-24T04:29:20.892Z,12.36
2017-10-24T04:30:21.466Z,12.31
2017-10-24T04:31:22.038Z,12.32
2017-10-24T04:32:22.620Z,12.29
2017-10-24T04:33:23.190Z,12.28
2017-10-24T04:34:23.779Z,12.32
2017-10-24T04:35:24.335Z,12.32
2017-10-24T04:36:24.906Z,12.37
2017-10-24T04:37:25.477Z,12.29
2017-10-24T04:38:26.050Z,12.36
2017-10-24T04:39:26.627Z,12.36
2017-10-24T04:40:27.208Z,12.43
2017-10-24T04:41:27.781Z,12.29
2017-10-24T04:42:28.360Z,12.32
2017-10-24T04:43:28.927Z,12.37
2017-10-24T04:44:29.510Z,12.31
2017-10-24T04:45:30.082Z,12.42
2017-10-24T04:46:30.654Z,12.40
2017-10-24T04:47:31.227Z,12.40
2017-10-24T04:48:31.801Z,12.45
2017-10-24T04:49:32.374Z,12.40
2017-10-24T04:50:32.945Z,12.42
2017-10-24T04:51:33.528Z,12.40
2017-10-24T04:52:34.102Z,12.42
2017-10-24T04:53:34.676Z,12.43
2017-10-24T04:54:35.254Z,12.43
2017-10-24T04:55:35.826Z,12.36
2017-10-24T04:56:36.392Z,12.39
2017-10-24T04:57:36.964Z,12.35
2017-10-24T04:58:37.537Z,12.35
2017-10-24T04:59:38.108Z,12.42
2017-10-24T05:00:38.682Z,12.39
2017-10-24T05:01:39.256Z,12.39
2017-10-24T05:02:39.828Z,12.45
2017-10-24T05:03:40.455Z,12.45
2017-10-24T05:04:41.023Z,12.43
2017-10-24T05:05:41.594Z,12.40
2017-10-24T05:06:42.166Z,12.40
2017-10-24T05:07:42.739Z,12.45
2017-10-24T05:08:43.312Z,12.42
2017-10-24T05:09:43.885Z,12.46
2017-10-24T05:10:44.459Z,12.43
2017-10-24T05:11:45.031Z,12.42
2017-10-24T05:12:45.606Z,12.45
2017-10-24T05:13:46.190Z,12.43
2017-10-24T05:14:46.769Z,12.43
2017-10-24T05:15:47.351Z,12.37
2017-10-24T05:16:47.924Z,12.49
2017-10-24T05:17:48.496Z,12.47
2017-10-24T05:18:49.068Z,12.40
2017-10-24T05:19:49.638Z,12.47
2017-10-24T05:20:50.211Z,12.46
2017-10-24T05:21:50.782Z,12.47
2017-10-24T05:22:51.367Z,12.46
2017-10-24T05:23:51.948Z,12.46
2017-10-24T05:24:52.521Z,12.47
2017-10-24T05:25:53.094Z,12.55
2017-10-24T05:26:53.668Z,12.54
2017-10-24T05:27:54.241Z,12.47
2017-10-24T05:28:54.817Z,12.39
2017-10-24T05:29:55.398Z,12.43
2017-10-24T05:30:55.969Z,12.45
2017-10-24T05:31:56.542Z,12.39
2017-10-24T05:32:57.114Z,12.49
2017-10-24T05:33:57.686Z,12.50
2017-10-24T05:34:58.258Z,12.47
2017-10-24T05:35:58.830Z,12.45
2017-10-24T05:36:59.401Z,12.45
2017-10-24T05:37:59.973Z,12.45
2017-10-24T05:39:00.544Z,12.42
2017-10-24T05:40:01.117Z,12.46
2017-10-24T05:41:01.692Z,12.45
2017-10-24T05:42:02.275Z,12.47
2017-10-24T05:43:02.839Z,12.45
2017-10-24T05:44:03.412Z,12.39
2017-10-24T05:45:03.982Z,12.47
2017-10-24T05:46:04.554Z,12.39
2017-10-24T05:47:05.125Z,12.46
2017-10-24T05:48:05.696Z,12.42
2017-10-24T05:49:06.268Z,12.43
2017-10-24T05:50:06.840Z,12.45
2017-10-24T05:51:07.412Z,12.46
2017-10-24T05:52:07.986Z,12.42
2017-10-24T05:53:08.558Z,12.54
2017-10-24T05:54:09.135Z,12.45
2017-10-24T05:55:09.703Z,12.54
2017-10-24T05:56:10.277Z,12.57
2017-10-24T05:57:10.848Z,12.42
2017-10-24T05:58:11.419Z,12.45
2017-10-24T05:59:11.991Z,12.49
2017-10-24T06:00:12.562Z,12.55
2017-10-24T06:01:13.133Z,12.54
2017-10-24T06:02:13.704Z,12.53
2017-10-24T06:03:14.279Z,12.54
2017-10-24T06:04:14.852Z,12.54
2017-10-24T06:05:15.425Z,12.60
2017-10-24T06:06:15.997Z,12.57
2017-10-24T06:07:16.569Z,12.57
2017-10-24T06:08:17.153Z,12.53
2017-10-24T06:09:17.725Z,12.60
2017-10-24T06:10:18.298Z,12.53
2017-10-24T06:11:18.871Z,12.53
2017-10-24T06:12:19.446Z,12.54
2017-10-24T06:13:20.015Z,12.47
2017-10-24T06:14:20.586Z,12.53
2017-10-24T06:15:21.157Z,12.50
2017-10-24T06:16:21.730Z,12.57
2017-10-24T06:17:22.301Z,12.57
2017-10-24T06:18:22.874Z,12.53
2017-10-24T06:19:23.451Z,12.57
2017-10-24T06:20:24.022Z,12.57
2017-10-24T06:21:24.592Z,12.54
2017-10-24T06:22:25.164Z,12.57
2017-10-24T06:23:25.738Z,12.54
2017-10-24T06:24:26.310Z,12.55
2017-10-24T06:25:26.881Z,12.53
2017-10-24T06:26:27.453Z,12.61
2017-10-24T06:27:28.024Z,12.57
2017-10-24T06:28:28.596Z,12.60
2017-10-24T06:29:29.168Z,12.61
2017-10-24T06:30:29.750Z,12.55
2017-10-24T06:31:30.322Z,12.67
2017-10-24T06:32:30.894Z,12.53
2017-10-24T06:33:31.467Z,12.70
2017-10-24T06:34:32.038Z,12.62
2017-10-24T06:35:32.611Z,12.70
2017-10-24T06:36:33.184Z,12.70
2017-10-24T06:37:33.758Z,12.65
2017-10-24T06:38:34.333Z,12.67
2017-10-24T06:39:34.907Z,12.70
2017-10-24T06:40:35.480Z,12.67
2017-10-24T06:41:36.052Z,12.68
2017-10-24T06:42:36.625Z,12.65
2017-10-24T06:43:37.198Z,12.62
2017-10-24T06:44:37.772Z,12.72
2017-10-24T06:45:38.347Z,12.67
2017-10-24T06:46:38.922Z,12.72
2017-10-24T06:47:39.494Z,12.65
2017-10-24T06:48:40.077Z,12.67
2017-10-24T06:49:40.661Z,12.68
2017-10-24T06:50:41.235Z,12.75
2017-10-24T06:51:41.810Z,12.76
2017-10-24T06:52:42.389Z,12.75
2017-10-24T06:53:42.957Z,12.67
2017-10-24T06:54:43.530Z,12.78
2017-10-24T06:55:44.103Z,12.67
2017-10-24T06:56:44.676Z,12.76
2017-10-24T06:57:45.251Z,12.65
2017-10-24T06:58:45.828Z,12.72
2017-10-24T06:59:46.410Z,12.78
2017-10-24T07:00:46.983Z,12.75
2017-10-24T07:01:47.557Z,12.76
2017-10-24T07:02:48.131Z,12.78
2017-10-24T07:03:48.703Z,12.72
2017-10-24T07:04:49.276Z,12.79
2017-10-24T07:05:49.852Z,12.73
2017-10-24T07:06:50.422Z,12.76
2017-10-24T07:07:50.997Z,12.72
2017-10-24T07:08:51.581Z,12.78
2017-10-24T07:09:52.157Z,12.80
2017-10-24T07:10:52.728Z,12.82
2017-10-24T07:11:53.302Z,12.73
2017-10-24T07:12:53.877Z,12.83
2017-10-24T07:13:54.449Z,12.83
2017-10-24T07:14:55.021Z,12.82
2017-10-24T07:15:55.594Z,12.75
2017-10-24T07:16:56.167Z,12.85
2017-10-24T07:17:56.750Z,12.86
2017-10-24T07:18:57.323Z,12.86
2017-10-24T07:19:57.895Z,12.85
2017-10-24T07:20:58.469Z,12.85
2017-10-24T07:21:59.042Z,12.94
2017-10-24T07:22:59.617Z,12.85
2017-10-24T07:24:00.191Z,12.90
2017-10-24T07:25:00.764Z,12.87
2017-10-24T07:26:01.337Z,12.90
2017-10-24T07:27:01.912Z,12.87
2017-10-24T07:28:02.484Z,12.90
2017-10-24T07:29:03.058Z,12.82
2017-10-24T07:30:03.632Z,12.79
2017-10-24T07:31:04.205Z,12.85
2017-10-24T07:32:04.779Z,12.93
2017-10-24T07:33:05.351Z,12.91
2017-10-24T07:34:05.924Z,12.90
2017-10-24T07:35:06.512Z,12.90
2017-10-24T07:36:07.081Z,12.97
2017-10-24T07:37:07.658Z,12.91
2017-10-24T07:38:08.227Z,13.01
2017-10-24T07:39:08.800Z,12.91
2017-10-24T07:40:09.373Z,13.00
2017-10-24T07:41:09.955Z,13.00
2017-10-24T07:42:10.530Z,12.97
2017-10-24T07:43:11.103Z,12.95
2017-10-24T07:44:11.677Z,13.03
2017-10-24T07:45:12.251Z,12.98
2017-10-24T07:46:12.823Z,13.01
2017-10-24T07:47:13.399Z,12.98
2017-10-24T07:48:13.971Z,13.00
2017-10-24T07:49:14.544Z,12.98
2017-10-24T07:50:15.118Z,13.08
2017-10-24T07:51:15.690Z,13.04
2017-10-24T07:52:16.269Z,13.00
2017-10-24T07:53:16.839Z,13.15
2017-10-24T07:54:17.413Z,13.00
2017-10-24T07:55:17.987Z,13.00
2017-10-24T07:56:18.559Z,12.98
2017-10-24T07:57:19.133Z,13.08
2017-10-24T07:58:19.716Z,12.98
2017-10-24T07:59:20.302Z,13.03
2017-10-24T08:00:20.878Z,13.05
2017-10-24T08:01:21.451Z,13.05
2017-10-24T08:02:22.034Z,13.11
2017-10-24T08:03:22.609Z,13.05
2017-10-24T08:04:23.183Z,13.08
2017-10-24T08:05:23.756Z,13.09
2017-10-24T08:06:24.329Z,13.04
2017-10-24T08:07:24.903Z,13.12
2017-10-24T08:08:25.476Z,13.12
2017-10-24T08:09:26.050Z,13.01
2017-10-24T08:10:26.626Z,13.08
2017-10-24T08:11:27.199Z,13.08
2017-10-24T08:12:27.774Z,13.05
2017-10-24T08:13:28.349Z,13.22
2017-10-24T08:14:28.920Z,13.18
2017-10-24T08:15:29.493Z,13.27
2017-10-24T08:16:30.065Z,13.16
2017-10-24T08:17:30.641Z,13.12
2017-10-24T08:18:31.217Z,13.16
2017-10-24T08:19:31.789Z,13.12
2017-10-24T08:20:32.362Z,13.16
2017-10-24T08:21:32.935Z,13.19
2017-10-24T08:22:33.508Z,13.09
2017-10-24T08:23:34.083Z,13.18
2017-10-24T08:24:34.657Z,13.05
2017-10-24T08:25:35.233Z,13.15
2017-10-24T08:26:35.806Z,13.28
2017-10-24T08:27:36.378Z,13.19
2017-10-24T08:28:36.955Z,13.27
2017-10-24T08:29:37.532Z,13.15
2017-10-24T08:30:38.100Z,13.33
2017-10-24T08:31:38.675Z,13.27
2017-10-24T08:32:39.249Z,13.23
2017-10-24T08:33:39.825Z,13.18
2017-10-24T08:34:40.398Z,13.19
2017-10-24T08:35:41.021Z,13.35
2017-10-24T08:36:41.596Z,13.23
2017-10-24T08:37:42.169Z,13.31
2017-10-24T08:38:42.746Z,13.35
2017-10-24T08:39:43.316Z,13.30
2017-10-24T08:40:43.900Z,13.35
2017-10-24T08:41:44.476Z,13.35
2017-10-24T08:42:45.050Z,13.31
2017-10-24T08:43:45.624Z,13.30
2017-10-24T08:44:46.208Z,13.33
2017-10-24T08:45:46.781Z,13.35
2017-10-24T08:46:47.357Z,13.30
2017-10-24T08:47:47.931Z,13.38
2017-10-24T08:48:48.505Z,13.38
2017-10-24T08:49:49.090Z,13.41
2017-10-24T08:50:49.665Z,13.44
2017-10-24T08:51:50.248Z,13.47
2017-10-24T08:52:50.816Z,13.53
2017-10-24T08:53:51.390Z,13.44
2017-10-24T08:54:51.965Z,13.37
2017-10-24T08:55:52.539Z,13.56
2017-10-24T08:56:53.115Z,13.56
2017-10-24T08:57:53.691Z,13.47
2017-10-24T08:58:54.264Z,13.52
2017-10-24T08:59:54.839Z,13.46
2017-10-24T09:00:55.416Z,13.47
2017-10-24T09:01:55.999Z,13.50
2017-10-24T09:02:56.573Z,13.56
2017-10-24T09:03:57.148Z,13.41
2017-10-24T09:04:57.722Z,13.57
2017-10-24T09:05:58.298Z,13.52
2017-10-24T09:06:58.872Z,13.54
2017-10-24T09:07:59.446Z,13.42
2017-10-24T09:09:00.022Z,13.53
2017-10-24T09:10:00.602Z,13.54
2017-10-24T09:11:01.179Z,13.59
2017-10-24T09:12:01.752Z,13.49
2017-10-24T09:13:02.325Z,13.46
2017-10-24T09:14:02.898Z,13.54
2017-10-24T09:15:03.472Z,13.46
2017-10-24T09:16:04.046Z,13.57
2017-10-24T09:17:04.621Z,13.53
2017-10-24T09:18:05.196Z,13.57
2017-10-24T09:19:05.772Z,13.56
2017-10-24T09:20:06.346Z,13.53
2017-10-24T09:21:06.919Z,13.57
2017-10-24T09:22:07.492Z,13.59
2017-10-24T09:23:08.068Z,13.56
2017-10-24T09:24:08.641Z,13.54
2017-10-24T09:25:09.217Z,13.56
2017-10-24T09:26:09.791Z,13.59
2017-10-24T09:27:10.367Z,13.59
2017-10-24T09:28:10.939Z,13.57
2017-10-24T09:29:11.514Z,13.59
2017-10-24T09:30:12.092Z,13.63
2017-10-24T09:31:12.664Z,13.62
2017-10-24T09:32:13.239Z,13.68
2017-10-24T09:33:13.819Z,13.60
2017-10-24T09:34:14.389Z,13.63
2017-10-24T09:35:14.965Z,13.65
2017-10-24T09:36:15.548Z,13.68
2017-10-24T09:37:16.124Z,13.57
2017-10-24T09:38:16.701Z,13.70
2017-10-24T09:39:17.284Z,13.65
2017-10-24T09:40:17.860Z,13.67
2017-10-24T09:41:18.436Z,13.67
2017-10-24T09:42:19.039Z,13.65
2017-10-24T09:43:19.896Z,13.68
2017-10-24T09:44:20.408Z,13.67
2017-10-24T09:45:20.951Z,13.75
2017-10-24T09:46:21.592Z,13.70
2017-10-24T09:47:22.162Z,13.62
2017-10-24T09:48:22.753Z,13.72
2017-10-24T09:49:23.323Z,13.72
2017-10-24T09:50:23.899Z,13.71
2017-10-24T09:51:24.473Z,13.77
2017-10-24T09:52:25.047Z,13.70
2017-10-24T09:53:25.624Z,13.74
2017-10-24T09:54:26.197Z,13.77
2017-10-24T09:55:26.781Z,13.78
2017-10-24T09:56:27.348Z,13.77
2017-10-24T09:57:27.930Z,13.86
2017-10-24T09:58:28.501Z,13.71
2017-10-24T09:59:29.075Z,13.79
2017-10-24T10:00:29.650Z,13.83
2017-10-24T10:01:30.236Z,13.85
2017-10-24T10:02:30.822Z,13.78
2017-10-24T10:03:31.398Z,13.78
2017-10-24T10:04:31.974Z,13.85
2017-10-24T10:05:32.549Z,13.87
2017-10-24T10:06:33.122Z,13.81
2017-10-24T10:07:33.696Z,13.86
2017-10-24T10:08:34.272Z,13.87
2017-10-24T10:09:34.848Z,13.81
2017-10-24T10:10:35.423Z,13.86
2017-10-24T10:11:36.163Z,13.93
2017-10-24T10:12:36.750Z,13.89
2017-10-24T10:13:37.320Z,13.87
2017-10-24T10:14:37.898Z,13.90
2017-10-24T10:15:38.472Z,13.89
2017-10-24T10:16:39.046Z,13.89
2017-10-24T10:17:39.622Z,13.87
2017-10-24T10:18:40.199Z,13.90
2017-10-24T10:19:40.775Z,13.93
2017-10-24T10:20:41.348Z,13.89
2017-10-24T10:21:41.922Z,13.90
2017-10-24T10:22:42.499Z,13.95
2017-10-24T10:23:43.078Z,13.92
2017-10-24T10:24:43.650Z,13.89
2017-10-24T10:25:44.224Z,13.93
2017-10-24T10:26:44.799Z,13.90
2017-10-24T10:27:45.375Z,13.89
2017-10-24T10:28:45.950Z,13.99
2017-10-24T10:29:46.531Z,13.89
2017-10-24T10:30:47.101Z,14.08
2017-10-24T10:31:47.675Z,14.03
2017-10-24T10:32:48.252Z,14.05
2017-10-24T10:33:48.827Z,13.97
2017-10-24T10:34:49.404Z,14.07
2017-10-24T10:35:49.978Z,14.14
2017-10-24T10:36:50.554Z,14.08
2017-10-24T10:37:51.130Z,14.08
2017-10-24T10:38:51.705Z,14.12
2017-10-24T10:39:52.290Z,14.20
2017-10-24T10:40:52.861Z,14.08
2017-10-24T10:41:53.430Z,14.23
2017-10-24T10:42:54.007Z,14.20
2017-10-24T10:43:54.583Z,14.25
2017-10-24T10:44:55.157Z,14.14
2017-10-24T10:45:55.732Z,14.30
2017-10-24T10:46:56.306Z,14.22
2017-10-24T10:47:56.899Z,14.20
2017-10-24T10:48:57.480Z,14.37
2017-10-24T10:49:58.055Z,14.28
2017-10-24T10:50:58.641Z,14.29
2017-10-24T10:51:59.218Z,14.17
2017-10-24T10:52:59.792Z,14.29
2017-10-24T10:54:00.373Z,14.33
2017-10-24T10:55:00.941Z,14.35
2017-10-24T10:56:01.519Z,14.33
2017-10-24T10:57:02.096Z,14.37
2017-10-24T10:58:02.672Z,14.45
2017-10-24T10:59:03.248Z,14.43
2017-10-24T11:00:03.826Z,14.32
2017-10-24T11:01:04.400Z,14.45
2017-10-24T11:02:04.987Z,14.44
2017-10-24T11:03:05.565Z,14.51
2017-10-24T11:04:06.140Z,14.51
2017-10-24T11:05:06.716Z,14.48
2017-10-24T11:06:07.294Z,14.59
2017-10-24T11:07:07.870Z,14.68
2017-10-24T11:08:08.448Z,14.65
2017-10-24T11:09:09.024Z,14.62
2017-10-24T11:10:09.599Z,14.66
2017-10-24T11:11:10.176Z,14.65
2017-10-24T11:12:10.757Z,14.65
2017-10-24T11:13:11.339Z,14.63
2017-10-24T11:14:11.916Z,14.68
2017-10-24T11:15:12.491Z,14.63
2017-10-24T11:16:13.068Z,14.78
2017-10-24T11:17:13.645Z,14.73
2017-10-24T11:18:14.221Z,14.81
2017-10-24T11:19:14.798Z,14.77
2017-10-24T11:20:15.384Z,14.91
2017-10-24T11:21:15.960Z,14.92
2017-10-24T11:22:16.537Z,14.92
2017-10-24T11:23:17.114Z,14.99
2017-10-24T11:24:17.692Z,14.89
2017-10-24T11:25:18.268Z,14.88
2017-10-24T11:26:18.842Z,14.94
2017-10-24T11:27:19.420Z,15.02
2017-10-24T11:28:19.998Z,15.00
2017-10-24T11:29:20.573Z,14.91
2017-10-24T11:30:21.149Z,15.04
2017-10-24T11:31:21.729Z,14.99
2017-10-24T11:32:22.306Z,15.02
2017-10-24T11:33:22.881Z,15.03
2017-10-24T11:34:23.457Z,15.02
2017-10-24T11:35:24.033Z,14.97
2017-10-24T11:36:24.613Z,14.99
2017-10-24T11:37:25.185Z,14.99
2017-10-24T11:38:25.760Z,15.03
2017-10-24T11:39:26.342Z,14.91
2017-10-24T11:40:26.914Z,14.92
2017-10-24T11:41:27.491Z,14.99
2017-10-24T11:42:28.067Z,15.17
2017-10-24T11:43:28.656Z,15.10
2017-10-24T11:44:29.220Z,15.21
2017-10-24T11:45:29.808Z,15.15
2017-10-24T11:46:30.385Z,15.17
2017-10-24T11:47:31.020Z,15.14
2017-10-24T11:48:31.589Z,15.17
2017-10-24T11:49:32.166Z,15.10
2017-10-24T11:50:32.744Z,15.18
2017-10-24T11:51:33.321Z,15.22
2017-10-24T11:52:33.895Z,15.19
2017-10-24T11:53:34.473Z,15.10
2017-10-24T11:54:35.048Z,15.07
2017-10-24T11:55:35.626Z,15.07
2017-10-24T11:56:36.211Z,15.07
2017-10-24T11:57:36.787Z,15.10
2017-10-24T11:58:37.363Z,15.07
2017-10-24T11:59:37.938Z,15.10
2017-10-24T12:00:38.516Z,14.96
2017-10-24T12:01:39.093Z,15.04
2017-10-24T12:02:39.669Z,15.10
2017-10-24T12:03:40.245Z,15.10
2017-10-24T12:04:40.820Z,15.07
2017-10-24T12:05:41.395Z,15.10
2017-10-24T12:06:41.972Z,15.11
2017-10-24T12:07:42.547Z,15.10
2017-10-24T12:08:43.134Z,15.17
2017-10-24T12:09:43.710Z,15.17
2017-10-24T12:10:44.286Z,15.11
2017-10-24T12:11:44.865Z,15.15
2017-10-24T12:12:45.449Z,15.03
2017-10-24T12:13:46.023Z,15.11
2017-10-24T12:14:46.599Z,15.03
2017-10-24T12:15:47.186Z,15.04
2017-10-24T12:16:47.762Z,15.09
2017-10-24T12:17:48.338Z,15.15
2017-10-24T12:18:48.914Z,15.14
2017-10-24T12:19:49.492Z,15.19
2017-10-24T12:20:50.072Z,15.29
2017-10-24T12:21:50.646Z,15.15
2017-10-24T12:22:51.222Z,15.14
2017-10-24T12:23:51.799Z,15.24
2017-10-24T12:24:52.375Z,15.19
2017-10-24T12:25:52.953Z,15.09
2017-10-24T12:26:53.528Z,15.07
2017-10-24T12:27:54.106Z,15.25
2017-10-24T12:28:54.690Z,15.21
2017-10-24T12:29:55.265Z,15.18
2017-10-24T12:30:55.840Z,15.11
2017-10-24T12:31:56.427Z,15.10
2017-10-24T12:32:57.002Z,15.06
2017-10-24T12:33:57.577Z,15.11
2017-10-24T12:34:58.152Z,15.11
2017-10-24T12:35:58.730Z,15.02
2017-10-24T12:36:59.306Z,15.00
2017-10-24T12:37:59.882Z,15.06
2017-10-24T12:39:00.458Z,15.07
2017-10-24T12:40:01.049Z,15.10
2017-10-24T12:41:01.618Z,15.03
2017-10-24T12:42:02.194Z,15.04
2017-10-24T12:43:02.769Z,15.02
2017-10-24T12:44:03.346Z,14.99
2017-10-24T12:45:03.923Z,14.99
2017-10-24T12:46:04.498Z,14.99
2017-10-24T12:47:05.073Z,14.96
2017-10-24T12:48:05.648Z,15.07
2017-10-24T12:49:06.224Z,15.03
2017-10-24T12:50:06.801Z,15.14
2017-10-24T12:51:07.376Z,15.15
2017-10-24T12:52:07.953Z,15.09
2017-10-24T12:53:08.528Z,15.17
2017-10-24T12:54:09.104Z,15.06
2017-10-24T12:55:09.681Z,15.21
2017-10-24T12:56:10.255Z,15.17
2017-10-24T12:57:10.832Z,15.14
2017-10-24T12:58:11.407Z,15.21
2017-10-24T12:59:11.995Z,15.11
2017-10-24T13:00:12.570Z,15.17